Terminal Aerodrome Forecast
Issued by NWS

Home | Current Version | Previous Version | Graphics & Text | Print | Product List | Glossary On
Versions: 1 2 3 4 5 6 7 8 9 10 11 12 13
000
FTUS43 KGRB 151720
TAFRHI
TAF
KRHI 151720Z 1518/1618 23007KT P6SM SKC
     FM160100 23004KT P6SM SKC
     FM160900 24004KT P6SM SCT250
      TEMPO 1610/1614 4SM BR FEW002
     FM161500 24005KT P6SM SCT250=

USA.gov is the U.S. government's official web portal to all federal, state and local government web resources and services.